Time;durP1;ratioP1;P1;durP2;ratioP2;P2;SDS_P1;SDS_P2;PMS_P1;PMS_P2;Temp;Humidity;BMP_temperature;BMP_pressure;BME280_temperature;BME280_humidity;BME280_pressure;Samples;Min_cycle;Max_cycle;Signal;HPM_P1;HPM_P2
2023/04/22 00:01:23;;;;;;;53.35;27.17;;;6.30;99.90;;;;;;5004256;28;20042;-53
2023/04/22 00:03:50;;;;;;;45.67;26.15;;;6.20;99.90;;;;;;4994799;28;20046;-54
2023/04/22 00:06:17;;;;;;;44.85;25.02;;;6.20;99.90;;;;;;5002627;28;20121;-53
2023/04/22 00:08:44;;;;;;;45.65;25.20;;;6.10;99.90;;;;;;4994694;28;20076;-56
2023/04/22 00:11:11;;;;;;;44.63;24.95;;;6.10;99.90;;;;;;5000971;28;20053;-55
2023/04/22 00:13:38;;;;;;;48.33;26.33;;;6.10;99.90;;;;;;4997917;28;20490;-56
2023/04/22 00:16:04;;;;;;;47.28;25.35;;;6.10;99.90;;;;;;4997139;28;20485;-55
2023/04/22 00:18:34;;;;;;;49.20;27.70;;;6.10;99.90;;;;;;4999366;28;20137;-55
2023/04/22 00:21:02;;;;;;;56.58;27.02;;;6.10;99.90;;;;;;4998552;28;20105;-56
2023/04/22 00:23:29;;;;;;;44.17;25.15;;;6.10;99.90;;;;;;4998432;28;20626;-55
2023/04/22 00:25:56;;;;;;;43.53;25.67;;;6.10;99.90;;;;;;4999643;28;20129;-55
2023/04/22 00:28:23;;;;;;;52.35;25.45;;;6.10;99.90;;;;;;4996950;28;20531;-56
2023/04/22 00:30:49;;;;;;;43.03;24.02;;;6.00;99.90;;;;;;5001233;28;20413;-57
2023/04/22 00:33:16;;;;;;;36.83;21.90;;;5.90;99.90;;;;;;5001113;28;20050;-56
2023/04/22 00:35:45;;;;;;;42.78;24.70;;;5.90;99.90;;;;;;4994352;28;20054;-55
2023/04/22 00:38:11;;;;;;;50.67;26.83;;;5.80;99.90;;;;;;4986360;28;20535;-56
2023/04/22 00:40:38;;;;;;;50.53;24.65;;;5.80;99.90;;;;;;4998925;28;20038;-55
2023/04/22 00:43:05;;;;;;;46.30;26.60;;;5.90;99.90;;;;;;5004766;28;20085;-55
2023/04/22 00:45:32;;;;;;;50.30;24.80;;;5.90;99.90;;;;;;4990005;28;20439;-55
2023/04/22 00:47:59;;;;;;;42.95;24.60;;;5.80;99.90;;;;;;4998116;28;20050;-56
2023/04/22 00:50:26;;;;;;;48.15;24.83;;;5.80;99.90;;;;;;5002572;28;20144;-56
2023/04/22 00:52:52;;;;;;;49.10;26.40;;;5.80;99.90;;;;;;5000407;28;20141;-56
2023/04/22 00:55:19;;;;;;;44.33;24.52;;;5.70;99.90;;;;;;4998039;28;20072;-55
2023/04/22 00:57:46;;;;;;;45.60;24.17;;;5.80;99.90;;;;;;4996690;28;20137;-55
2023/04/22 01:00:13;;;;;;;43.90;25.92;;;5.70;99.90;;;;;;5000763;28;20058;-56
2023/04/22 01:02:40;;;;;;;47.15;26.38;;;5.70;99.90;;;;;;4998278;28;20038;-56
2023/04/22 01:05:10;;;;;;;48.65;26.17;;;5.70;99.90;;;;;;4996832;28;20084;-56
2023/04/22 01:07:36;;;;;;;46.03;25.27;;;5.80;99.90;;;;;;4999305;28;20042;-56
2023/04/22 01:10:04;;;;;;;44.17;23.65;;;5.80;99.90;;;;;;4997567;28;20269;-55
2023/04/22 01:12:32;;;;;;;43.38;25.98;;;5.80;99.90;;;;;;4997867;28;20042;-56
2023/04/22 01:15:00;;;;;;;46.42;25.00;;;5.90;99.90;;;;;;4648134;28;9999994;-54
2023/04/22 01:17:33;;;;;;;46.13;24.25;;;5.80;99.90;;;;;;4998305;28;20138;-54
2023/04/22 01:19:59;;;;;;;42.47;23.63;;;5.90;99.90;;;;;;5002463;28;20050;-54
2023/04/22 01:22:26;;;;;;;39.05;23.20;;;5.90;99.90;;;;;;4994660;28;20362;-55
2023/04/22 01:24:53;;;;;;;48.38;26.45;;;5.80;99.90;;;;;;5001623;28;20060;-55
2023/04/22 01:27:20;;;;;;;47.05;24.75;;;5.80;99.90;;;;;;4993093;28;20566;-55
2023/04/22 01:29:47;;;;;;;39.72;22.20;;;5.80;99.90;;;;;;5002481;28;20049;-55
2023/04/22 01:32:14;;;;;;;40.30;23.08;;;5.90;99.90;;;;;;5005270;28;20046;-55
2023/04/22 01:34:41;;;;;;;48.70;23.42;;;5.90;99.90;;;;;;5002466;28;20050;-55
2023/04/22 01:37:08;;;;;;;46.80;23.45;;;5.90;99.90;;;;;;4990572;28;20221;-54
2023/04/22 01:39:34;;;;;;;35.53;21.40;;;5.90;99.90;;;;;;5002262;28;20053;-56
2023/04/22 01:42:02;;;;;;;39.45;22.50;;;5.80;99.90;;;;;;4993460;28;20057;-55
2023/04/22 01:44:29;;;;;;;41.45;23.88;;;5.80;99.90;;;;;;4995288;28;20130;-55
2023/04/22 01:46:55;;;;;;;43.10;24.55;;;5.80;99.90;;;;;;5000925;28;20081;-55
2023/04/22 01:49:22;;;;;;;43.58;23.23;;;5.80;99.90;;;;;;4996318;28;20092;-55
2023/04/22 01:51:49;;;;;;;41.67;23.20;;;5.80;99.90;;;;;;4998938;28;20151;-56
2023/04/22 01:54:15;;;;;;;44.10;24.48;;;5.80;99.90;;;;;;4999087;28;20042;-56
2023/04/22 01:56:52;;;;;;;43.67;24.95;;;5.90;99.90;;;;;;5006451;28;20660;-55
2023/04/22 01:59:20;;;;;;;41.33;22.73;;;5.90;99.90;;;;;;4996677;28;20045;-56
2023/04/22 02:01:47;;;;;;;41.70;23.30;;;5.90;99.90;;;;;;4999175;28;20105;-55
2023/04/22 02:04:14;;;;;;;36.25;21.52;;;5.80;99.90;;;;;;4996312;28;20049;-54
2023/04/22 02:06:40;;;;;;;44.28;23.20;;;5.80;99.90;;;;;;4998878;28;20049;-55
2023/04/22 02:09:07;;;;;;;41.00;23.38;;;5.80;99.90;;;;;;4995721;28;20054;-54
2023/04/22 02:11:34;;;;;;;42.85;22.63;;;5.80;99.90;;;;;;4995486;28;20048;-55
2023/04/22 02:14:01;;;;;;;38.95;21.63;;;5.80;99.90;;;;;;5003450;28;20050;-54
2023/04/22 02:16:28;;;;;;;40.70;22.60;;;5.70;99.90;;;;;;5002204;28;20492;-55
2023/04/22 02:18:54;;;;;;;44.30;22.10;;;5.70;99.90;;;;;;4997246;28;20136;-58
2023/04/22 02:21:21;;;;;;;46.33;24.08;;;5.70;99.90;;;;;;5000764;28;20046;-55
2023/04/22 02:23:48;;;;;;;43.55;22.98;;;5.70;99.90;;;;;;5009066;28;20121;-57
2023/04/22 02:26:15;;;;;;;43.20;22.08;;;5.70;99.90;;;;;;4994590;28;20102;-55
2023/04/22 02:28:41;;;;;;;47.28;24.88;;;5.80;99.90;;;;;;5006738;28;20380;-56
2023/04/22 02:31:08;;;;;;;42.33;23.40;;;5.80;99.90;;;;;;4998365;28;20050;-56
2023/04/22 02:33:35;;;;;;;40.33;21.73;;;5.80;99.90;;;;;;5005733;28;20129;-55
2023/04/22 02:36:02;;;;;;;39.40;21.23;;;5.80;99.90;;;;;;5003394;28;20046;-57
2023/04/22 02:38:29;;;;;;;43.03;23.35;;;5.80;99.90;;;;;;4999861;28;20589;-55
2023/04/22 02:40:55;;;;;;;37.33;20.90;;;5.90;99.90;;;;;;5000998;28;20077;-54
2023/04/22 02:43:22;;;;;;;42.67;22.48;;;5.90;99.90;;;;;;5001418;28;20567;-55
2023/04/22 02:45:49;;;;;;;41.47;22.20;;;5.90;99.90;;;;;;5000079;28;20417;-54
2023/04/22 02:48:16;;;;;;;38.22;20.70;;;5.80;99.90;;;;;;5002372;28;20053;-55
2023/04/22 02:50:42;;;;;;;38.83;20.55;;;5.90;99.90;;;;;;4996917;28;20054;-54
2023/04/22 02:53:09;;;;;;;45.17;22.02;;;5.80;99.90;;;;;;5002842;28;20129;-55
2023/04/22 02:55:36;;;;;;;41.13;21.90;;;5.80;99.90;;;;;;5004325;28;20057;-54
2023/04/22 02:58:03;;;;;;;40.30;22.48;;;5.50;99.90;;;;;;4998498;28;20084;-54
2023/04/22 03:00:29;;;;;;;46.17;24.88;;;5.80;99.90;;;;;;5006441;28;20421;-56
2023/04/22 03:02:56;;;;;;;46.85;22.48;;;5.80;99.90;;;;;;4996017;28;20046;-52
2023/04/22 03:05:23;;;;;;;47.53;24.05;;;5.70;99.90;;;;;;5008664;28;20038;-55
2023/04/22 03:07:50;;;;;;;41.15;22.25;;;5.70;99.90;;;;;;4995570;28;20097;-53
2023/04/22 03:10:17;;;;;;;41.47;22.60;;;5.70;99.90;;;;;;5008090;28;20042;-54
2023/04/22 03:12:44;;;;;;;41.22;21.08;;;5.90;99.90;;;;;;4996197;28;20054;-54
2023/04/22 03:15:11;;;;;;;39.92;21.02;;;5.80;99.90;;;;;;5006120;28;20673;-54
2023/04/22 03:17:37;;;;;;;38.95;20.33;;;5.70;99.90;;;;;;5003883;28;20050;-54
2023/04/22 03:20:05;;;;;;;40.53;20.40;;;5.70;99.90;;;;;;4997412;28;20077;-54
2023/04/22 03:22:32;;;;;;;43.60;21.73;;;5.70;99.90;;;;;;4999738;28;20453;-53
2023/04/22 03:24:58;;;;;;;40.95;21.83;;;5.70;99.90;;;;;;5002295;28;20053;-55
2023/04/22 03:27:25;;;;;;;45.58;21.48;;;5.70;99.90;;;;;;5001098;28;20210;-53
2023/04/22 03:29:52;;;;;;;42.03;20.70;;;5.70;99.90;;;;;;4999399;28;20129;-54
2023/04/22 03:32:19;;;;;;;39.60;21.85;;;5.60;99.90;;;;;;5007329;28;20071;-56
2023/04/22 03:34:45;;;;;;;36.10;20.02;;;5.60;99.90;;;;;;5007880;28;20504;-55
2023/04/22 03:37:12;;;;;;;38.97;21.08;;;5.50;99.90;;;;;;5009636;28;20041;-55
2023/04/22 03:39:39;;;;;;;38.92;21.60;;;5.60;99.90;;;;;;4998119;28;20046;-55
2023/04/22 03:42:06;;;;;;;45.30;23.05;;;5.60;99.90;;;;;;5010661;28;20488;-55
2023/04/22 03:44:33;;;;;;;45.72;22.58;;;5.60;99.90;;;;;;5003893;28;20140;-55
2023/04/22 03:47:00;;;;;;;41.28;22.52;;;5.60;99.90;;;;;;4991185;28;20050;-56
2023/04/22 03:49:27;;;;;;;38.13;21.02;;;5.40;99.90;;;;;;4993634;28;20054;-56
2023/04/22 03:51:54;;;;;;;39.95;20.40;;;5.30;99.90;;;;;;4992921;28;20053;-57
2023/04/22 03:54:20;;;;;;;36.58;19.55;;;5.30;99.90;;;;;;5007443;28;20485;-55
2023/04/22 03:56:47;;;;;;;46.28;21.27;;;5.30;99.90;;;;;;5010738;28;20049;-57
2023/04/22 03:59:14;;;;;;;34.63;19.13;;;5.30;99.90;;;;;;5004712;28;20048;-53
2023/04/22 04:01:40;;;;;;;43.03;19.75;;;5.40;99.90;;;;;;4995116;28;20054;-55
2023/04/22 04:04:07;;;;;;;38.30;19.17;;;5.40;99.90;;;;;;4998734;28;20137;-55
2023/04/22 04:06:34;;;;;;;38.72;20.83;;;5.40;99.90;;;;;;5009996;28;20066;-55
2023/04/22 04:09:02;;;;;;;42.38;20.77;;;5.50;99.90;;;;;;5005643;28;20416;-56
2023/04/22 04:11:29;;;;;;;47.97;21.50;;;5.50;99.90;;;;;;4999056;28;20476;-55
2023/04/22 04:13:56;;;;;;;36.60;19.38;;;5.50;99.90;;;;;;4994131;28;20117;-55
2023/04/22 04:16:23;;;;;;;38.42;21.48;;;5.50;99.90;;;;;;4990647;28;20046;-55
2023/04/22 04:18:50;;;;;;;31.92;18.45;;;5.40;99.90;;;;;;4991778;28;20543;-58
2023/04/22 04:21:16;;;;;;;41.83;21.27;;;5.30;99.90;;;;;;4981497;28;20479;-55
2023/04/22 04:23:43;;;;;;;37.53;19.73;;;5.30;99.90;;;;;;5009601;28;20499;-55
2023/04/22 04:26:10;;;;;;;39.85;20.02;;;5.40;99.90;;;;;;4995022;28;20077;-55
2023/04/22 04:28:37;;;;;;;39.97;19.98;;;5.50;99.90;;;;;;5009988;28;20513;-56
2023/04/22 04:31:04;;;;;;;37.00;21.05;;;5.40;99.90;;;;;;4997064;28;20072;-55
2023/04/22 04:33:31;;;;;;;34.72;20.35;;;5.40;99.90;;;;;;5010295;28;20151;-55
2023/04/22 04:35:58;;;;;;;37.50;20.98;;;5.60;99.90;;;;;;5005377;28;20046;-53
2023/04/22 04:38:25;;;;;;;35.50;18.60;;;5.50;99.90;;;;;;4990298;28;20201;-56
2023/04/22 04:40:52;;;;;;;36.38;19.23;;;5.60;99.90;;;;;;4993296;28;20055;-55
2023/04/22 04:43:20;;;;;;;33.53;19.33;;;5.60;99.90;;;;;;5007538;28;20045;-55
2023/04/22 04:45:46;;;;;;;32.78;18.48;;;5.60;99.90;;;;;;5005566;28;20073;-55
2023/04/22 04:48:15;;;;;;;34.20;18.02;;;5.60;99.90;;;;;;4993822;28;20119;-55
2023/04/22 04:50:42;;;;;;;32.80;19.08;;;5.60;99.90;;;;;;4993924;28;20049;-55
2023/04/22 04:53:09;;;;;;;35.13;20.27;;;5.60;99.90;;;;;;5002613;28;20049;-54
2023/04/22 04:55:36;;;;;;;35.03;20.17;;;5.70;99.90;;;;;;4994925;28;20093;-52
2023/04/22 04:58:03;;;;;;;32.17;18.25;;;5.70;99.90;;;;;;4998222;28;20458;-54
2023/04/22 05:00:30;;;;;;;35.42;20.42;;;5.70;99.90;;;;;;4993454;28;20132;-55
2023/04/22 05:02:56;;;;;;;37.13;19.25;;;5.80;99.90;;;;;;4998800;28;20045;-53
2023/04/22 05:05:23;;;;;;;42.47;20.73;;;5.70;99.90;;;;;;5007133;28;20053;-55
2023/04/22 05:07:52;;;;;;;31.80;18.98;;;5.70;99.90;;;;;;5000384;28;20050;-55
2023/04/22 05:10:20;;;;;;;38.88;20.83;;;5.80;99.90;;;;;;4989911;28;20056;-52
2023/04/22 05:12:46;;;;;;;41.60;20.92;;;5.80;99.90;;;;;;4997700;28;20108;-52
2023/04/22 05:15:14;;;;;;;33.85;17.75;;;5.80;99.90;;;;;;5008602;28;20046;-55
2023/04/22 05:17:40;;;;;;;34.95;19.42;;;5.80;99.90;;;;;;5001643;28;20559;-53
2023/04/22 05:20:08;;;;;;;33.30;19.55;;;5.80;99.90;;;;;;4988967;28;20554;-55
2023/04/22 05:22:35;;;;;;;32.63;17.90;;;5.80;99.90;;;;;;5001008;28;20042;-54
2023/04/22 05:25:03;;;;;;;35.78;18.60;;;6.10;99.90;;;;;;4995420;28;20056;-54
2023/04/22 05:27:30;;;;;;;36.60;19.33;;;5.90;99.90;;;;;;5004338;28;20552;-55
2023/04/22 05:29:56;;;;;;;35.88;19.92;;;5.90;99.90;;;;;;4989037;28;20108;-54
2023/04/22 05:32:23;;;;;;;37.13;20.75;;;6.00;99.90;;;;;;4992881;28;20043;-54
2023/04/22 05:34:50;;;;;;;36.45;19.23;;;5.90;99.90;;;;;;5004616;28;20111;-54
2023/04/22 05:37:17;;;;;;;31.00;17.88;;;5.90;99.90;;;;;;5004182;28;20042;-52
2023/04/22 05:39:43;;;;;;;38.80;20.23;;;6.00;99.90;;;;;;4994986;28;20054;-53
2023/04/22 05:42:10;;;;;;;33.80;18.90;;;6.00;99.90;;;;;;4992636;28;20133;-54
2023/04/22 05:44:37;;;;;;;32.42;18.83;;;5.90;99.90;;;;;;4987635;28;20060;-55
2023/04/22 05:47:03;;;;;;;34.22;18.80;;;5.90;99.90;;;;;;4990098;28;20421;-56
2023/04/22 05:49:30;;;;;;;35.20;19.33;;;5.90;99.90;;;;;;4999317;28;20053;-55
2023/04/22 05:51:57;;;;;;;34.88;19.58;;;6.00;99.90;;;;;;4990251;28;20082;-53
2023/04/22 05:54:23;;;;;;;38.10;20.25;;;6.00;99.90;;;;;;4994756;28;20047;-55
2023/04/22 05:56:50;;;;;;;39.72;21.08;;;6.00;99.90;;;;;;4988722;28;20510;-52
2023/04/22 05:59:17;;;;;;;39.53;20.45;;;6.00;99.90;;;;;;4992230;28;20055;-55
2023/04/22 06:01:46;;;;;;;42.47;21.35;;;6.00;99.90;;;;;;4989099;28;20591;-54
2023/04/22 06:04:13;;;;;;;40.95;18.73;;;6.10;99.90;;;;;;4999513;28;20056;-53
2023/04/22 06:06:40;;;;;;;38.42;20.42;;;6.30;99.90;;;;;;4988764;28;20133;-55
2023/04/22 06:09:07;;;;;;;36.65;20.52;;;6.30;99.90;;;;;;4992188;28;20480;-55
2023/04/22 06:11:33;;;;;;;39.90;22.23;;;6.30;99.90;;;;;;4988381;28;20121;-54
2023/04/22 06:14:00;;;;;;;38.63;22.38;;;6.40;99.90;;;;;;4992604;28;20047;-54
2023/04/22 06:16:27;;;;;;;45.13;22.65;;;6.40;99.90;;;;;;5006318;28;20046;-56
2023/04/22 06:18:53;;;;;;;38.35;21.60;;;6.50;99.90;;;;;;5003783;28;20129;-52
2023/04/22 06:21:20;;;;;;;39.45;22.88;;;6.50;99.90;;;;;;4993339;28;20047;-54
2023/04/22 06:23:47;;;;;;;41.63;21.50;;;6.50;99.90;;;;;;4992578;28;20046;-57
2023/04/22 06:26:14;;;;;;;39.25;22.25;;;6.50;99.90;;;;;;5001900;28;20475;-54
2023/04/22 06:28:40;;;;;;;42.45;21.98;;;6.50;99.90;;;;;;5004139;28;20038;-58
2023/04/22 06:31:07;;;;;;;39.90;22.10;;;6.60;99.90;;;;;;4996255;28;20105;-54
2023/04/22 06:33:34;;;;;;;43.40;22.45;;;6.70;99.90;;;;;;4992150;28;20049;-57
2023/04/22 06:36:00;;;;;;;45.75;23.23;;;6.80;99.90;;;;;;4650228;28;9999722;-54
2023/04/22 06:38:27;;;;;;;49.42;22.92;;;6.80;99.90;;;;;;5002451;28;20093;-55
2023/04/22 06:40:54;;;;;;;45.03;24.85;;;6.90;99.90;;;;;;4992542;28;20069;-55
2023/04/22 06:43:20;;;;;;;51.42;24.27;;;7.00;99.90;;;;;;5004523;28;20766;-54
2023/04/22 06:45:47;;;;;;;50.20;24.95;;;7.10;99.90;;;;;;4997236;28;20421;-55
2023/04/22 06:48:14;;;;;;;48.97;24.23;;;7.10;99.90;;;;;;5001491;28;20056;-55
2023/04/22 06:50:41;;;;;;;48.88;26.20;;;7.20;99.90;;;;;;4998766;28;20057;-54
2023/04/22 06:53:08;;;;;;;48.85;25.17;;;7.20;99.90;;;;;;4985678;28;20061;-54
2023/04/22 06:55:35;;;;;;;57.47;27.45;;;7.20;99.90;;;;;;4998166;28;20125;-55
2023/04/22 06:58:02;;;;;;;45.85;25.00;;;7.30;99.90;;;;;;5002086;28;20057;-52
2023/04/22 07:00:29;;;;;;;53.85;28.65;;;7.30;99.90;;;;;;5001072;28;20081;-52
2023/04/22 07:02:55;;;;;;;57.58;29.02;;;7.40;99.90;;;;;;4987902;28;20054;-57
2023/04/22 07:05:23;;;;;;;60.80;29.85;;;7.60;99.90;;;;;;4997889;28;20488;-55
2023/04/22 07:07:49;;;;;;;54.75;27.83;;;7.40;99.90;;;;;;4992562;28;20050;-53
2023/04/22 07:10:16;;;;;;;59.30;28.92;;;7.50;99.90;;;;;;4991277;28;20195;-60
2023/04/22 07:12:44;;;;;;;57.00;30.80;;;7.50;99.90;;;;;;5000089;28;20084;-55
2023/04/22 07:15:11;;;;;;;53.08;28.60;;;7.60;99.90;;;;;;4998438;28;20505;-51
2023/04/22 07:17:38;;;;;;;53.97;29.45;;;7.60;99.90;;;;;;4998771;28;20045;-52
2023/04/22 07:20:05;;;;;;;56.78;29.83;;;7.70;99.90;;;;;;5004862;28;20409;-55
2023/04/22 07:22:32;;;;;;;60.45;31.23;;;7.90;99.90;;;;;;4997787;28;20050;-55
2023/04/22 07:24:59;;;;;;;63.70;31.48;;;7.90;99.90;;;;;;4989964;28;20141;-55
2023/04/22 07:27:25;;;;;;;68.18;31.00;;;7.90;99.90;;;;;;4987959;28;20049;-55
2023/04/22 07:29:52;;;;;;;66.20;34.35;;;7.90;99.90;;;;;;4987331;28;20556;-54
2023/04/22 07:32:19;;;;;;;72.57;36.22;;;8.00;99.90;;;;;;5003389;28;20073;-55
2023/04/22 07:34:46;;;;;;;62.53;35.67;;;8.00;99.90;;;;;;5001555;28;20112;-58
2023/04/22 07:37:13;;;;;;;69.93;34.50;;;8.10;99.90;;;;;;5003260;28;20053;-58
2023/04/22 07:39:39;;;;;;;66.05;35.30;;;8.20;99.90;;;;;;5007674;28;20042;-55
2023/04/22 07:42:07;;;;;;;71.50;35.10;;;8.30;99.90;;;;;;5003541;28;20057;-55
2023/04/22 07:44:33;;;;;;;67.55;35.20;;;8.40;99.90;;;;;;4988235;28;20066;-53
2023/04/22 07:47:01;;;;;;;71.43;36.40;;;8.60;99.90;;;;;;4991899;28;20057;-54
2023/04/22 07:49:28;;;;;;;72.07;36.90;;;8.70;99.90;;;;;;5004564;28;20050;-55
2023/04/22 07:51:55;;;;;;;75.25;38.10;;;8.70;99.90;;;;;;5002101;28;20057;-56
2023/04/22 07:54:22;;;;;;;80.88;38.47;;;8.70;99.90;;;;;;4984778;28;20049;-55
2023/04/22 07:56:49;;;;;;;74.10;38.53;;;8.80;99.90;;;;;;5003183;28;20081;-54
2023/04/22 07:59:15;;;;;;;68.18;35.55;;;8.90;99.90;;;;;;4994219;28;20046;-54
2023/04/22 08:01:44;;;;;;;64.15;33.28;;;9.00;99.90;;;;;;4989972;28;20049;-56
2023/04/22 08:04:11;;;;;;;55.20;30.15;;;9.20;99.90;;;;;;4998159;28;20050;-57
2023/04/22 08:06:39;;;;;;;53.75;30.25;;;9.20;99.90;;;;;;5005188;28;20050;-56
2023/04/22 08:09:06;;;;;;;52.97;27.90;;;9.30;99.90;;;;;;4998621;28;20072;-57
2023/04/22 08:11:32;;;;;;;56.13;30.60;;;9.30;99.90;;;;;;4997860;28;20104;-55
2023/04/22 08:13:59;;;;;;;63.13;31.45;;;9.40;99.90;;;;;;5000899;28;20137;-56
2023/04/22 08:16:26;;;;;;;62.25;30.90;;;9.40;99.90;;;;;;4990690;28;20077;-55
2023/04/22 08:18:53;;;;;;;54.78;29.00;;;9.40;99.90;;;;;;4993926;28;20050;-55
2023/04/22 08:21:19;;;;;;;57.38;30.52;;;9.40;99.90;;;;;;4988420;28;20050;-56
2023/04/22 08:23:46;;;;;;;45.70;27.02;;;9.50;99.90;;;;;;4995380;28;20046;-55
2023/04/22 08:26:15;;;;;;;39.08;23.50;;;9.60;99.90;;;;;;5009076;28;20050;-55
2023/04/22 08:28:42;;;;;;;35.10;20.60;;;9.70;99.90;;;;;;5005004;28;20045;-54
2023/04/22 08:31:10;;;;;;;31.80;20.48;;;9.90;99.90;;;;;;4985923;28;20068;-54
2023/04/22 08:33:39;;;;;;;33.42;18.60;;;10.00;99.90;;;;;;4995759;28;20046;-54
2023/04/22 08:36:06;;;;;;;26.13;15.48;;;10.10;99.90;;;;;;5004440;28;20169;-54
2023/04/22 08:38:33;;;;;;;23.17;12.88;;;10.20;99.90;;;;;;4998249;28;20076;-52
2023/04/22 08:41:00;;;;;;;26.30;14.10;;;10.30;99.90;;;;;;5004632;28;20054;-54
2023/04/22 08:43:27;;;;;;;27.55;15.07;;;10.40;99.90;;;;;;5004586;28;20058;-53
2023/04/22 08:45:54;;;;;;;26.33;14.50;;;10.40;99.90;;;;;;4993230;28;20493;-56
2023/04/22 08:48:21;;;;;;;29.33;14.70;;;10.30;99.90;;;;;;4991673;28;20096;-54
2023/04/22 08:50:48;;;;;;;21.63;13.05;;;10.50;99.90;;;;;;4987461;28;20535;-55
2023/04/22 08:53:15;;;;;;;23.25;13.20;;;10.30;99.90;;;;;;4990305;28;20138;-55
2023/04/22 08:55:43;;;;;;;27.15;15.50;;;10.50;99.90;;;;;;4999724;28;20412;-55
2023/04/22 08:58:11;;;;;;;20.52;12.63;;;10.60;99.90;;;;;;5006198;28;20050;-55
2023/04/22 09:00:39;;;;;;;19.13;11.38;;;10.60;99.90;;;;;;4999621;28;20133;-56
2023/04/22 09:03:05;;;;;;;19.80;11.27;;;10.60;99.90;;;;;;4987752;28;20148;-55
2023/04/22 09:05:33;;;;;;;21.30;10.05;;;10.70;99.90;;;;;;4997275;28;20041;-54
2023/04/22 09:08:00;;;;;;;20.63;11.82;;;10.70;99.90;;;;;;5007128;28;20100;-56
2023/04/22 09:10:27;;;;;;;18.33;10.93;;;10.90;99.90;;;;;;4999426;28;20053;-55
2023/04/22 09:12:54;;;;;;;22.58;11.68;;;11.00;99.90;;;;;;4988710;28;20523;-55
2023/04/22 09:15:21;;;;;;;18.23;10.75;;;11.00;99.90;;;;;;4992010;28;20161;-55
2023/04/22 09:17:50;;;;;;;21.50;12.38;;;11.00;99.90;;;;;;5008332;28;20045;-52
2023/04/22 09:20:18;;;;;;;18.23;11.07;;;11.00;99.90;;;;;;4997837;28;20088;-56
2023/04/22 09:22:46;;;;;;;21.25;10.80;;;11.20;99.90;;;;;;5007585;28;20064;-54
2023/04/22 09:25:21;;;;;;;21.55;12.57;;;11.30;99.90;;;;;;5003007;28;20104;-54
2023/04/22 09:27:52;;;;;;;20.58;10.98;;;11.30;99.90;;;;;;4990383;28;20050;-56
2023/04/22 09:30:31;;;;;;;18.08;10.52;;;11.40;99.90;;;;;;4993230;28;20042;-57
2023/04/22 09:32:59;;;;;;;18.77;10.10;;;11.50;99.90;;;;;;5006874;28;20053;-54
2023/04/22 09:35:26;;;;;;;20.52;11.77;;;11.60;99.90;;;;;;5004201;28;20041;-56
2023/04/22 09:37:54;;;;;;;18.38;10.68;;;11.70;99.90;;;;;;5005395;28;20489;-56
2023/04/22 09:40:21;;;;;;;19.85;12.43;;;11.80;99.90;;;;;;5000729;28;20046;-57
2023/04/22 09:42:52;;;;;;;23.75;15.30;;;11.90;99.90;;;;;;5002006;28;20045;-55
2023/04/22 09:45:32;;;;;;;17.15;12.07;;;12.00;99.90;;;;;;5004224;28;20085;-55
2023/04/22 09:48:06;;;;;;;16.70;10.10;;;12.30;99.90;;;;;;4992652;28;20046;-55
2023/04/22 09:50:33;;;;;;;18.63;10.77;;;12.50;99.90;;;;;;4993726;28;20416;-55
2023/04/22 09:53:03;;;;;;;19.45;10.20;;;12.60;99.90;;;;;;4998364;28;20053;-56
2023/04/22 09:55:35;;;;;;;16.60;10.75;;;12.80;99.90;;;;;;4989887;28;20924;-56
2023/04/22 09:58:10;;;;;;;17.08;10.20;;;13.10;99.90;;;;;;4997168;28;20486;-56
2023/04/22 10:00:43;;;;;;;15.93;10.73;;;13.30;99.90;;;;;;5001207;28;20056;-55
2023/04/22 10:03:10;;;;;;;;;;;13.80;99.90;;;;;;4994025;28;20448;-54
2023/04/22 10:05:37;;;;;;;13.63;9.68;;;14.00;99.90;;;;;;4987969;28;19928;-57
2023/04/22 10:08:04;;;;;;;13.23;9.48;;;14.00;99.90;;;;;;4993112;28;20046;-55
2023/04/22 10:10:32;;;;;;;13.32;9.32;;;13.80;99.90;;;;;;5001839;28;20050;-55
2023/04/22 10:13:00;;;;;;;15.00;10.00;;;14.00;99.90;;;;;;4996787;28;20050;-55
2023/04/22 10:15:31;;;;;;;14.05;9.48;;;14.30;99.90;;;;;;4986944;28;20062;-53
2023/04/22 10:17:58;;;;;;;17.40;11.10;;;14.40;99.90;;;;;;4995430;28;20080;-59
2023/04/22 10:20:24;;;;;;;12.70;9.13;;;14.50;99.90;;;;;;4974681;28;20082;-56
2023/04/22 10:22:52;;;;;;;16.13;9.60;;;14.20;99.90;;;;;;4991510;28;20057;-57
2023/04/22 10:25:24;;;;;;;14.93;9.30;;;14.00;99.90;;;;;;4999514;28;20132;-55
2023/04/22 10:28:03;;;;;;;14.18;9.77;;;13.90;99.90;;;;;;4992012;28;20088;-55
2023/04/22 10:30:31;;;;;;;15.95;10.35;;;13.60;99.90;;;;;;4989723;28;20592;-55
2023/04/22 10:33:33;;;;;;;15.75;11.23;;;12.90;99.90;;;;;;4987055;28;20046;-55
2023/04/22 10:36:14;;;;;;;16.38;8.88;;;12.70;99.90;;;;;;4954027;28;20478;-59
2023/04/22 10:39:01;;;;;;;14.95;9.48;;;12.90;99.90;;;;;;4998685;28;20073;-54
2023/04/22 10:41:30;;;;;;;14.80;9.93;;;13.00;99.90;;;;;;4987369;28;20064;-55
2023/04/22 10:44:00;;;;;;;18.38;10.38;;;13.10;99.90;;;;;;5005976;28;20443;-55
2023/04/22 10:46:31;;;;;;;10.75;8.27;;;13.20;99.90;;;;;;5002557;28;20057;-55
2023/04/22 10:49:00;;;;;;;13.30;8.70;;;13.50;99.90;;;;;;4994412;28;20051;-54
2023/04/22 10:51:40;;;;;;;19.70;9.45;;;13.50;99.90;;;;;;5001677;28;20058;-54
2023/04/22 10:54:07;;;;;;;19.02;10.05;;;13.40;99.90;;;;;;5001634;28;20065;-53
2023/04/22 10:56:34;;;;;;;14.65;9.48;;;13.60;99.90;;;;;;4982589;28;20081;-51
2023/04/22 10:59:16;;;;;;;11.93;7.88;;;13.70;99.90;;;;;;4999142;28;20046;-53
2023/04/22 11:01:43;;;;;;;20.75;10.95;;;13.80;99.90;;;;;;4996321;28;20081;-53
2023/04/22 11:04:21;;;;;;;14.18;9.05;;;13.70;99.90;;;;;;5001657;28;20077;-53
2023/04/22 11:07:16;;;;;;;26.30;9.65;;;13.70;99.90;;;;;;4997331;28;20058;-55
2023/04/22 11:09:43;;;;;;;;;;;13.80;99.90;;;;;;4999424;28;20381;-54
2023/04/22 11:12:38;;;;;;;9.50;7.05;;;13.80;99.90;;;;;;5002346;28;19925;-55
2023/04/22 11:15:09;;;;;;;9.88;7.15;;;13.90;99.90;;;;;;4996962;28;20130;-59
2023/04/22 11:17:36;;;;;;;9.98;7.28;;;14.10;99.90;;;;;;5002928;28;20053;-57
2023/04/22 11:20:04;;;;;;;11.98;7.75;;;14.30;99.90;;;;;;4998930;28;20047;-54
2023/04/22 11:22:35;;;;;;;12.50;7.68;;;14.30;99.90;;;;;;4995190;28;20560;-54
2023/04/22 11:25:03;;;;;;;13.80;7.60;;;14.20;99.90;;;;;;4999780;28;20054;-52
2023/04/22 11:27:29;;;;;;;8.80;6.45;;;14.10;99.90;;;;;;5000257;28;20074;-54
2023/04/22 11:30:10;;;;;;;8.43;6.40;;;14.10;99.90;;;;;;4991716;28;20050;-54
2023/04/22 11:32:40;;;;;;;10.43;5.80;;;13.90;99.90;;;;;;4994894;28;20045;-53
2023/04/22 11:35:09;;;;;;;14.82;6.80;;;13.70;99.90;;;;;;4999346;28;20136;-56
2023/04/22 11:38:05;;;;;;;9.85;6.70;;;13.70;99.90;;;;;;5003817;28;20038;-52
2023/04/22 11:40:41;;;;;;;10.93;6.38;;;13.60;99.90;;;;;;4994205;28;20077;-54
2023/04/22 11:43:12;;;;;;;8.73;6.18;;;13.60;99.90;;;;;;5000753;28;20487;-53
2023/04/22 11:45:39;;;;;;;13.15;7.60;;;13.50;99.90;;;;;;5001082;28;20062;-51
2023/04/22 11:48:06;;;;;;;12.07;6.65;;;13.70;99.90;;;;;;4993279;28;20056;-55
2023/04/22 11:50:35;;;;;;;15.65;7.75;;;13.80;99.90;;;;;;4994331;28;20116;-54
2023/04/22 11:53:16;;;;;;;14.50;6.97;;;13.90;99.90;;;;;;4990545;28;20104;-56
2023/04/22 11:55:43;;;;;;;9.90;7.20;;;13.90;99.90;;;;;;4996481;28;20556;-52
2023/04/22 11:58:15;;;;;;;10.63;7.03;;;14.00;99.90;;;;;;4991060;28;20144;-53
2023/04/22 12:00:44;;;;;;;9.18;7.05;;;14.10;99.90;;;;;;4993804;28;20410;-51
2023/04/22 12:03:11;;;;;;;19.90;8.55;;;14.20;99.90;;;;;;4997559;28;20049;-51
2023/04/22 12:05:43;;;;;;;10.00;6.85;;;14.10;99.90;;;;;;4999341;28;20050;-52
2023/04/22 12:08:10;;;;;;;10.80;7.28;;;14.20;99.90;;;;;;4998939;28;20058;-54
2023/04/22 12:10:44;;;;;;;9.00;6.72;;;14.20;99.90;;;;;;5000435;28;20042;-58
2023/04/22 12:13:19;;;;;;;;;;;14.30;99.90;;;;;;4994110;28;20602;-52
2023/04/22 12:15:46;;;;;;;11.70;6.18;;;14.40;99.00;;;;;;4997463;28;20365;-54
2023/04/22 12:18:13;;;;;;;10.88;7.13;;;14.50;99.40;;;;;;4999482;28;20065;-54
2023/04/22 12:20:40;;;;;;;10.50;7.40;;;14.70;99.90;;;;;;4999003;28;20162;-54
2023/04/22 12:23:16;;;;;;;10.98;6.68;;;14.70;99.90;;;;;;4997407;28;20050;-54
2023/04/22 12:25:43;;;;;;;8.65;6.28;;;14.70;98.80;;;;;;4998381;28;20042;-54
2023/04/22 12:28:10;;;;;;;8.60;5.75;;;14.60;99.90;;;;;;4995825;28;20054;-54
2023/04/22 12:30:36;;;;;;;7.40;5.88;;;14.70;99.90;;;;;;4997991;28;20341;-54
2023/04/22 12:33:03;;;;;;;9.93;6.75;;;14.60;99.20;;;;;;4997071;28;20073;-52
2023/04/22 12:35:30;;;;;;;8.38;6.38;;;14.60;99.90;;;;;;4995622;28;20122;-54
2023/04/22 12:37:57;;;;;;;9.30;6.72;;;14.60;98.70;;;;;;4998438;28;20119;-55
2023/04/22 12:40:23;;;;;;;9.98;7.88;;;14.60;98.10;;;;;;4995466;28;20129;-55